Time,TemperatureF,DewpointF,PressureIn,WindDirection,WindDirectionDegrees,WindSpeedMPH,WindSpeedGustMPH,Humidity,HourlyPrecipIn,Conditions,Clouds,dailyrainin,SoftwareType,DateUTC
2013-05-31 00:11:00,79.3,77.0,29.82,WSW,251,6.0,12.0,91,0.00,,,0.00,weatherlink.com 1.10,2013-05-31 05:11:00,
2013-05-31 00:26:00,79.1,76.0,29.82,SW,219,9.0,12.0,91,0.00,,,0.00,weatherlink.com 1.10,2013-05-31 05:26:00,
2013-05-31 00:41:00,79.1,76.0,29.82,SSW,209,6.0,11.0,91,0.00,,,0.00,weatherlink.com 1.10,2013-05-31 05:41:00,
2013-05-31 00:56:00,79.1,76.0,29.82,SW,234,6.0,14.0,91,0.00,,,0.00,weatherlink.com 1.10,2013-05-31 05:56:00,
2013-05-31 01:11:00,79.1,76.0,29.82,NW,316,6.0,11.0,91,0.00,,,0.00,weatherlink.com 1.10,2013-05-31 06:11:00,
2013-05-31 01:26:00,79.0,76.0,29.82,SSW,212,7.0,13.0,91,0.00,,,0.00,weatherlink.com 1.10,2013-05-31 06:26:00,
2013-05-31 01:41:00,79.0,76.0,29.82,SW,222,6.0,11.0,91,0.00,,,0.00,weatherlink.com 1.10,2013-05-31 06:41:00,
2013-05-31 01:56:00,78.9,76.0,29.81,West,271,5.0,10.0,91,0.00,,,0.00,weatherlink.com 1.10,2013-05-31 06:56:00,
2013-05-31 02:11:00,79.0,76.0,29.81,North,352,7.0,11.0,91,0.00,,,0.00,weatherlink.com 1.10,2013-05-31 07:11:00,
2013-05-31 02:26:00,78.9,76.0,29.81,NNE,27,2.0,10.0,91,0.00,,,0.00,weatherlink.com 1.10,2013-05-31 07:26:00,
2013-05-31 02:41:00,78.8,76.0,29.81,NW,312,5.0,10.0,91,0.00,,,0.00,weatherlink.com 1.10,2013-05-31 07:41:00,
2013-05-31 02:56:00,78.7,76.0,29.81,SW,227,5.0,9.0,92,0.00,,,0.00,weatherlink.com 1.10,2013-05-31 07:56:00,
2013-05-31 03:11:00,78.7,76.0,29.81,SW,214,8.0,16.0,92,0.00,,,0.00,weatherlink.com 1.10,2013-05-31 08:11:00,
2013-05-31 03:26:00,78.7,76.0,29.80,NW,321,2.0,11.0,91,0.00,,,0.00,weatherlink.com 1.10,2013-05-31 08:26:00,
2013-05-31 03:41:00,78.8,76.0,29.81,NNW,334,9.0,12.0,91,0.00,,,0.00,weatherlink.com 1.10,2013-05-31 08:41:00,
2013-05-31 03:56:00,78.8,76.0,29.81,NW,315,3.0,14.0,91,0.00,,,0.00,weatherlink.com 1.10,2013-05-31 08:56:00,
2013-05-31 04:11:00,79.0,76.0,29.81,North,359,6.0,13.0,91,0.00,,,0.00,weatherlink.com 1.10,2013-05-31 09:11:00,
2013-05-31 04:26:00,79.1,76.0,29.81,West,266,10.0,13.0,90,0.00,,,0.00,weatherlink.com 1.10,2013-05-31 09:26:00,
2013-05-31 04:41:00,79.1,76.0,29.81,WNW,282,6.0,12.0,90,0.00,,,0.00,weatherlink.com 1.10,2013-05-31 09:41:00,
2013-05-31 04:56:00,79.2,76.0,29.81,SSW,206,8.0,11.0,90,0.00,,,0.00,weatherlink.com 1.10,2013-05-31 09:56:00,
2013-05-31 05:11:00,79.2,76.0,29.81,SSW,196,4.0,13.0,90,0.00,,,0.00,weatherlink.com 1.10,2013-05-31 10:11:00,
2013-05-31 05:26:00,79.1,76.0,29.80,West,279,4.0,14.0,90,0.00,,,0.00,weatherlink.com 1.10,2013-05-31 10:26:00,
2013-05-31 05:41:00,79.1,76.0,29.81,WSW,252,5.0,11.0,90,0.00,,,0.00,weatherlink.com 1.10,2013-05-31 10:41:00,
2013-05-31 05:56:00,79.1,76.0,29.80,NE,40,10.0,13.0,90,0.00,,,0.00,weatherlink.com 1.10,2013-05-31 10:56:00,
2013-05-31 06:11:00,79.1,76.0,29.81,NW,307,2.0,12.0,90,0.00,,,0.00,weatherlink.com 1.10,2013-05-31 11:11:00,
2013-05-31 06:27:00,79.2,76.0,29.81,NE,37,4.0,9.0,90,0.00,,,0.00,weatherlink.com 1.10,2013-05-31 11:27:00,
2013-05-31 06:42:00,79.3,76.0,29.81,ENE,62,5.0,12.0,90,0.00,,,0.00,weatherlink.com 1.10,2013-05-31 11:42:00,
2013-05-31 06:57:00,79.2,76.0,29.82,East,85,7.0,11.0,89,0.00,,,0.00,weatherlink.com 1.10,2013-05-31 11:57:00,
2013-05-31 07:12:00,79.4,76.0,29.82,WNW,289,4.0,12.0,89,0.00,,,0.00,weatherlink.com 1.10,2013-05-31 12:12:00,
2013-05-31 07:27:00,79.6,76.0,29.83,SSW,210,2.0,10.0,89,0.00,,,0.00,weatherlink.com 1.10,2013-05-31 12:27:00,
2013-05-31 07:42:00,80.0,76.0,29.84,SSE,168,2.0,10.0,88,0.00,,,0.00,weatherlink.com 1.10,2013-05-31 12:42:00,
2013-05-31 07:57:00,80.1,76.0,29.84,East,94,3.0,13.0,87,0.00,,,0.00,weatherlink.com 1.10,2013-05-31 12:57:00,
2013-05-31 08:12:00,80.5,76.0,29.84,ENE,72,1.0,9.0,87,0.00,,,0.00,weatherlink.com 1.10,2013-05-31 13:12:00,
2013-05-31 08:27:00,81.0,77.0,29.85,WNW,290,2.0,11.0,88,0.00,,,0.00,weatherlink.com 1.10,2013-05-31 13:27:00,
2013-05-31 08:42:00,81.3,77.0,29.85,NW,323,6.0,10.0,86,0.00,,,0.00,weatherlink.com 1.10,2013-05-31 13:42:00,
2013-05-31 08:57:00,81.6,77.0,29.85,SW,214,6.0,11.0,86,0.00,,,0.00,weatherlink.com 1.10,2013-05-31 13:57:00,
2013-05-31 09:12:00,81.9,77.0,29.86,WSW,243,2.0,9.0,85,0.00,,,0.00,weatherlink.com 1.10,2013-05-31 14:12:00,
2013-05-31 09:27:00,82.3,77.0,29.86,WSW,252,3.0,14.0,85,0.00,,,0.00,weatherlink.com 1.10,2013-05-31 14:27:00,
2013-05-31 09:42:00,83.1,78.0,29.86,SW,221,6.0,12.0,83,0.00,,,0.00,weatherlink.com 1.10,2013-05-31 14:42:00,
2013-05-31 09:57:00,83.6,78.0,29.86,NNE,31,5.0,11.0,82,0.00,,,0.00,weatherlink.com 1.10,2013-05-31 14:57:00,
2013-05-31 10:12:00,85.0,78.0,29.86,East,97,3.0,12.0,79,0.00,,,0.00,weatherlink.com 1.10,2013-05-31 15:12:00,
2013-05-31 10:27:00,85.2,78.0,29.86,South,182,5.0,11.0,78,0.00,,,0.00,weatherlink.com 1.10,2013-05-31 15:27:00,
2013-05-31 10:42:00,85.2,78.0,29.86,SSW,207,7.0,11.0,79,0.00,,,0.00,weatherlink.com 1.10,2013-05-31 15:42:00,
2013-05-31 10:57:00,86.1,78.0,29.86,NW,307,4.0,11.0,77,0.00,,,0.00,weatherlink.com 1.10,2013-05-31 15:57:00,
2013-05-31 11:12:00,86.2,77.0,29.86,WSW,252,6.0,11.0,75,0.00,,,0.00,weatherlink.com 1.10,2013-05-31 16:12:00,
2013-05-31 11:27:00,86.8,78.0,29.86,SW,229,6.0,11.0,74,0.00,,,0.00,weatherlink.com 1.10,2013-05-31 16:27:00,
2013-05-31 11:42:00,87.2,78.0,29.86,SW,221,3.0,10.0,74,0.00,,,0.00,weatherlink.com 1.10,2013-05-31 16:42:00,
2013-05-31 11:57:00,87.5,78.0,29.85,WNW,299,6.0,11.0,74,0.00,,,0.00,weatherlink.com 1.10,2013-05-31 16:57:00,
2013-05-31 12:12:00,87.1,78.0,29.85,West,267,10.0,11.0,74,0.00,,,0.00,weatherlink.com 1.10,2013-05-31 17:12:00,
2013-05-31 12:27:00,87.3,78.0,29.84,South,187,8.0,12.0,73,0.00,,,0.00,weatherlink.com 1.10,2013-05-31 17:27:00,
2013-05-31 12:42:00,87.0,77.0,29.84,East,83,7.0,15.0,73,0.00,,,0.00,weatherlink.com 1.10,2013-05-31 17:42:00,
2013-05-31 12:57:00,87.0,77.0,29.84,South,191,8.0,12.0,73,0.00,,,0.00,weatherlink.com 1.10,2013-05-31 17:57:00,
2013-05-31 13:12:00,87.3,77.0,29.84,WNW,293,5.0,13.0,72,0.00,,,0.00,weatherlink.com 1.10,2013-05-31 18:12:00,
2013-05-31 13:27:00,87.3,77.0,29.84,SW,218,4.0,13.0,72,0.00,,,0.00,weatherlink.com 1.10,2013-05-31 18:27:00,
2013-05-31 13:42:00,87.5,78.0,29.83,NNW,328,6.0,15.0,73,0.00,,,0.00,weatherlink.com 1.10,2013-05-31 18:42:00,
2013-05-31 13:57:00,87.6,78.0,29.83,WSW,244,9.0,16.0,73,0.00,,,0.00,weatherlink.com 1.10,2013-05-31 18:57:00,
2013-05-31 14:12:00,87.6,78.0,29.82,WSW,242,10.0,18.0,74,0.00,,,0.00,weatherlink.com 1.10,2013-05-31 19:12:00,
2013-05-31 14:27:00,87.2,78.0,29.82,SW,233,14.0,18.0,74,0.00,,,0.00,weatherlink.com 1.10,2013-05-31 19:27:00,
2013-05-31 14:42:00,86.9,78.0,29.82,SSW,192,7.0,18.0,75,0.00,,,0.00,weatherlink.com 1.10,2013-05-31 19:42:00,
2013-05-31 14:57:00,86.7,78.0,29.81,South,172,12.0,16.0,74,0.00,,,0.00,weatherlink.com 1.10,2013-05-31 19:57:00,
2013-05-31 15:12:00,87.1,78.0,29.81,WSW,242,7.0,15.0,74,0.00,,,0.00,weatherlink.com 1.10,2013-05-31 20:12:00,
2013-05-31 15:27:00,87.4,78.0,29.79,SSW,198,13.0,18.0,73,0.00,,,0.00,weatherlink.com 1.10,2013-05-31 20:27:00,
2013-05-31 15:42:00,87.1,78.0,29.79,West,261,7.0,21.0,74,0.00,,,0.00,weatherlink.com 1.10,2013-05-31 20:42:00,
2013-05-31 15:57:00,86.9,78.0,29.78,WNW,295,7.0,18.0,75,0.00,,,0.00,weatherlink.com 1.10,2013-05-31 20:57:00,
2013-05-31 16:12:00,87.1,78.0,29.78,SW,235,9.0,18.0,73,0.00,,,0.00,weatherlink.com 1.10,2013-05-31 21:12:00,
2013-05-31 16:27:00,86.6,77.0,29.78,SSW,210,14.0,16.0,74,0.00,,,0.00,weatherlink.com 1.10,2013-05-31 21:27:00,
2013-05-31 16:42:00,85.9,77.0,29.77,WSW,246,13.0,19.0,75,0.00,,,0.00,weatherlink.com 1.10,2013-05-31 21:42:00,
2013-05-31 16:58:00,86.0,78.0,29.77,SW,235,8.0,15.0,76,0.00,,,0.00,weatherlink.com 1.10,2013-05-31 21:58:00,
2013-05-31 17:13:00,85.6,77.0,29.77,West,267,11.0,18.0,76,0.00,,,0.00,weatherlink.com 1.10,2013-05-31 22:13:00,
2013-05-31 17:28:00,85.4,78.0,29.76,South,173,14.0,20.0,78,0.00,,,0.00,weatherlink.com 1.10,2013-05-31 22:28:00,
2013-05-31 17:43:00,84.9,77.0,29.76,West,266,11.0,21.0,78,0.00,,,0.00,weatherlink.com 1.10,2013-05-31 22:43:00,
2013-05-31 17:58:00,85.1,78.0,29.77,WSW,238,9.0,15.0,79,0.00,,,0.00,weatherlink.com 1.10,2013-05-31 22:58:00,
2013-05-31 18:13:00,84.3,78.0,29.77,WSW,237,7.0,19.0,80,0.00,,,0.00,weatherlink.com 1.10,2013-05-31 23:13:00,
2013-05-31 18:28:00,83.8,78.0,29.77,WSW,248,10.0,16.0,82,0.00,,,0.00,weatherlink.com 1.10,2013-05-31 23:28:00,
2013-05-31 18:43:00,83.6,78.0,29.77,WSW,240,9.0,15.0,82,0.00,,,0.00,weatherlink.com 1.10,2013-05-31 23:43:00,
2013-05-31 18:58:00,83.2,77.0,29.77,SW,233,5.0,16.0,82,0.00,,,0.00,weatherlink.com 1.10,2013-05-31 23:58:00,
2013-05-31 19:13:00,82.7,77.0,29.77,WNW,299,7.0,15.0,83,0.00,,,0.00,weatherlink.com 1.10,2013-06-01 00:13:00,
2013-05-31 19:28:00,82.2,77.0,29.77,SW,225,8.0,15.0,84,0.00,,,0.00,weatherlink.com 1.10,2013-06-01 00:28:00,
2013-05-31 19:43:00,81.8,77.0,29.77,SW,229,11.0,19.0,85,0.00,,,0.00,weatherlink.com 1.10,2013-06-01 00:43:00,
2013-05-31 19:58:00,81.2,77.0,29.78,WSW,248,10.0,13.0,87,0.00,,,0.00,weatherlink.com 1.10,2013-06-01 00:58:00,
2013-05-31 20:13:00,81.0,77.0,29.78,SW,220,5.0,13.0,87,0.00,,,0.00,weatherlink.com 1.10,2013-06-01 01:13:00,
2013-05-31 20:28:00,80.8,77.0,29.79,WSW,244,8.0,12.0,88,0.00,,,0.00,weatherlink.com 1.10,2013-06-01 01:28:00,
2013-05-31 20:43:00,80.6,77.0,29.79,SW,221,10.0,13.0,87,0.00,,,0.00,weatherlink.com 1.10,2013-06-01 01:43:00,
2013-05-31 20:58:00,80.5,77.0,29.79,WSW,249,7.0,14.0,88,0.00,,,0.00,weatherlink.com 1.10,2013-06-01 01:58:00,
2013-05-31 21:13:00,80.5,77.0,29.79,West,270,4.0,11.0,88,0.00,,,0.00,weatherlink.com 1.10,2013-06-01 02:13:00,
2013-05-31 21:28:00,80.4,77.0,29.79,SSW,196,6.0,12.0,88,0.00,,,0.00,weatherlink.com 1.10,2013-06-01 02:28:00,
2013-05-31 21:43:00,80.4,77.0,29.80,WSW,243,7.0,12.0,88,0.00,,,0.00,weatherlink.com 1.10,2013-06-01 02:43:00,
2013-05-31 21:58:00,80.4,77.0,29.80,West,274,11.0,13.0,88,0.00,,,0.00,weatherlink.com 1.10,2013-06-01 02:58:00,
2013-05-31 22:13:00,80.2,76.0,29.81,West,271,6.0,15.0,88,0.00,,,0.00,weatherlink.com 1.10,2013-06-01 03:13:00,
2013-05-31 22:28:00,80.2,77.0,29.81,West,274,6.0,12.0,89,0.00,,,0.00,weatherlink.com 1.10,2013-06-01 03:28:00,
2013-05-31 22:43:00,80.2,77.0,29.81,SSW,203,5.0,12.0,89,0.00,,,0.00,weatherlink.com 1.10,2013-06-01 03:43:00,
2013-05-31 22:58:00,80.2,77.0,29.82,SSW,196,4.0,12.0,89,0.00,,,0.00,weatherlink.com 1.10,2013-06-01 03:58:00,
2013-05-31 23:13:00,80.1,77.0,29.82,NW,305,6.0,12.0,89,0.00,,,0.00,weatherlink.com 1.10,2013-06-01 04:13:00,
2013-05-31 23:28:00,80.0,77.0,29.82,NW,304,8.0,13.0,89,0.00,,,0.00,weatherlink.com 1.10,2013-06-01 04:28:00,
2013-05-31 23:43:00,80.0,77.0,29.81,SW,234,5.0,14.0,89,0.00,,,0.00,weatherlink.com 1.10,2013-06-01 04:43:00,
2013-05-31 23:58:00,80.1,76.0,29.80,WSW,257,3.0,16.0,88,0.00,,,0.00,weatherlink.com 1.10,2013-06-01 04:58:00,